Time,TemperatureF,DewpointF,PressureIn,WindDirection,WindDirectionDegrees,WindSpeedMPH,WindSpeedGustMPH,Humidity,HourlyPrecipIn,Conditions,Clouds,dailyrainin,SoftwareType,DateUTC
2013-01-12 00:09:00,67.9,65.0,30.14,SW,222,0.0,-999.0,89,-99.99,,,0.00,weatherlink.com 1.10,2013-01-12 05:09:00,
2013-01-12 00:24:00,67.8,65.0,30.14,SW,223,0.0,-999.0,90,-99.99,,,0.00,weatherlink.com 1.10,2013-01-12 05:24:00,
2013-01-12 00:39:00,67.7,65.0,30.14,SW,223,0.0,-999.0,90,-99.99,,,0.00,weatherlink.com 1.10,2013-01-12 05:39:00,
2013-01-12 00:54:00,67.4,65.0,30.13,South,180,2.0,-999.0,90,-99.99,,,0.00,weatherlink.com 1.10,2013-01-12 05:54:00,
2013-01-12 01:09:00,67.0,64.0,30.13,SSW,198,0.0,-999.0,91,-99.99,,,0.00,weatherlink.com 1.10,2013-01-12 06:09:00,
2013-01-12 01:24:00,66.7,64.0,30.13,SSW,195,1.0,-999.0,91,-99.99,,,0.00,weatherlink.com 1.10,2013-01-12 06:24:00,
2013-01-12 01:39:00,66.5,64.0,30.13,SSW,195,0.0,-999.0,92,-99.99,,,0.00,weatherlink.com 1.10,2013-01-12 06:39:00,
2013-01-12 01:54:00,66.3,64.0,30.12,SSW,195,0.0,-999.0,92,-99.99,,,0.00,weatherlink.com 1.10,2013-01-12 06:54:00,
2013-01-12 02:09:00,66.0,64.0,30.13,SSW,196,0.0,-999.0,92,-99.99,,,0.00,weatherlink.com 1.10,2013-01-12 07:09:00,
2013-01-12 02:24:00,65.8,64.0,30.13,SSW,201,0.0,-999.0,93,-99.99,,,0.00,weatherlink.com 1.10,2013-01-12 07:24:00,
2013-01-12 02:39:00,65.8,64.0,30.12,SSW,212,0.0,-999.0,93,-99.99,,,0.00,weatherlink.com 1.10,2013-01-12 07:39:00,
2013-01-12 02:54:00,65.6,64.0,30.12,SSW,213,2.0,-999.0,93,-99.99,,,0.00,weatherlink.com 1.10,2013-01-12 07:54:00,
2013-01-12 03:09:00,65.2,63.0,30.12,SSW,213,0.0,-999.0,93,-99.99,,,0.00,weatherlink.com 1.10,2013-01-12 08:09:00,
2013-01-12 03:24:00,65.1,63.0,30.12,SSW,213,0.0,-999.0,93,-99.99,,,0.00,weatherlink.com 1.10,2013-01-12 08:24:00,
2013-01-12 03:39:00,65.0,63.0,30.11,SSW,213,0.0,-999.0,94,-99.99,,,0.00,weatherlink.com 1.10,2013-01-12 08:39:00,
2013-01-12 03:54:00,64.8,63.0,30.11,SSW,200,0.0,-999.0,94,-99.99,,,0.00,weatherlink.com 1.10,2013-01-12 08:54:00,
2013-01-12 04:09:00,64.7,63.0,30.11,SSW,210,0.0,-999.0,94,-99.99,,,0.00,weatherlink.com 1.10,2013-01-12 09:09:00,
2013-01-12 04:24:00,64.5,63.0,30.10,SSW,210,1.0,-999.0,94,-99.99,,,0.00,weatherlink.com 1.10,2013-01-12 09:24:00,
2013-01-12 04:39:00,64.5,63.0,30.11,SSW,210,0.0,-999.0,94,-99.99,,,0.00,weatherlink.com 1.10,2013-01-12 09:39:00,
2013-01-12 04:54:00,64.5,63.0,30.11,SSW,210,0.0,-999.0,94,-99.99,,,0.00,weatherlink.com 1.10,2013-01-12 09:54:00,
2013-01-12 05:09:00,64.3,63.0,30.11,SSW,210,0.0,-999.0,95,-99.99,,,0.00,weatherlink.com 1.10,2013-01-12 10:09:00,
2013-01-12 05:24:00,64.4,63.0,30.11,SSW,210,0.0,-999.0,95,-99.99,,,0.00,weatherlink.com 1.10,2013-01-12 10:24:00,
2013-01-12 05:39:00,64.5,63.0,30.11,SSW,210,1.0,-999.0,95,-99.99,,,0.00,weatherlink.com 1.10,2013-01-12 10:39:00,
2013-01-12 05:54:00,-999.0,-99.9,30.11,North,-999,-999.0,-999.0,-999,-99.99,,,0.00,weatherlink.com 1.10,2013-01-12 10:54:00,
2013-01-12 06:09:00,-999.0,-99.9,30.11,North,-999,-999.0,-999.0,-999,-99.99,,,0.00,weatherlink.com 1.10,2013-01-12 11:09:00,
2013-01-12 06:25:00,-999.0,-99.9,30.12,North,-999,-999.0,-999.0,-999,-99.99,,,0.00,weatherlink.com 1.10,2013-01-12 11:25:00,
2013-01-12 06:40:00,-999.0,-99.9,30.12,North,-999,-999.0,-999.0,-999,-99.99,,,0.00,weatherlink.com 1.10,2013-01-12 11:40:00,
2013-01-12 06:55:00,-999.0,-99.9,30.12,North,-999,-999.0,-999.0,-999,-99.99,,,0.00,weatherlink.com 1.10,2013-01-12 11:55:00,
2013-01-12 07:10:00,-999.0,-99.9,30.13,North,-999,-999.0,-999.0,-999,-99.99,,,0.00,weatherlink.com 1.10,2013-01-12 12:10:00,
2013-01-12 07:25:00,-999.0,-99.9,30.13,North,-999,-999.0,-999.0,-999,-99.99,,,0.00,weatherlink.com 1.10,2013-01-12 12:25:00,
2013-01-12 07:41:00,-999.0,-99.9,30.14,North,-999,-999.0,-999.0,-999,-99.99,,,0.00,weatherlink.com 1.10,2013-01-12 12:41:00,
2013-01-12 07:58:00,-999.0,-99.9,30.14,North,-999,-999.0,-999.0,-999,-99.99,,,0.00,weatherlink.com 1.10,2013-01-12 12:58:00,
2013-01-12 08:15:00,-999.0,-99.9,30.14,North,-999,-999.0,-999.0,-999,-99.99,,,0.00,weatherlink.com 1.10,2013-01-12 13:15:00,
2013-01-12 08:32:00,-999.0,-99.9,30.15,North,-999,-999.0,-999.0,-999,-99.99,,,0.00,weatherlink.com 1.10,2013-01-12 13:32:00,
2013-01-12 08:50:00,-999.0,-99.9,30.15,North,-999,-999.0,-999.0,-999,-99.99,,,0.00,weatherlink.com 1.10,2013-01-12 13:50:00,
2013-01-12 09:06:00,64.6,64.0,30.15,ESE,105,0.0,-999.0,96,-99.99,,,0.00,weatherlink.com 1.10,2013-01-12 14:06:00,
2013-01-12 09:22:00,66.5,66.0,30.16,South,182,0.0,-999.0,97,-99.99,,,0.00,weatherlink.com 1.10,2013-01-12 14:22:00,
2013-01-12 09:38:00,68.0,67.0,30.16,SSE,167,0.0,-999.0,95,-99.99,,,0.00,weatherlink.com 1.10,2013-01-12 14:38:00,
2013-01-12 09:54:00,70.3,68.0,30.15,ESE,123,0.0,-999.0,92,-99.99,,,0.00,weatherlink.com 1.10,2013-01-12 14:54:00,
2013-01-12 10:12:00,71.8,68.0,30.15,SSW,192,3.0,-999.0,87,-99.99,,,0.00,weatherlink.com 1.10,2013-01-12 15:12:00,
2013-01-12 10:28:00,73.0,68.0,30.14,SE,141,4.0,-999.0,84,-99.99,,,0.00,weatherlink.com 1.10,2013-01-12 15:28:00,
2013-01-12 10:44:00,74.0,68.0,30.14,SSE,167,2.0,-999.0,81,-99.99,,,0.00,weatherlink.com 1.10,2013-01-12 15:44:00,
2013-01-12 11:00:00,75.0,67.0,30.13,SSE,159,6.0,-999.0,77,-99.99,,,0.00,weatherlink.com 1.10,2013-01-12 16:00:00,
2013-01-12 11:18:00,75.6,67.0,30.12,SE,128,5.0,-999.0,75,-99.99,,,0.00,weatherlink.com 1.10,2013-01-12 16:18:00,
2013-01-12 11:33:00,76.4,67.0,30.12,South,178,7.0,-999.0,72,-99.99,,,0.00,weatherlink.com 1.10,2013-01-12 16:33:00,
2013-01-12 11:51:00,77.1,66.0,30.11,SW,224,2.0,-999.0,69,-99.99,,,0.00,weatherlink.com 1.10,2013-01-12 16:51:00,
2013-01-12 12:07:00,77.6,66.0,30.10,SE,127,5.0,-999.0,68,-99.99,,,0.00,weatherlink.com 1.10,2013-01-12 17:07:00,
2013-01-12 12:23:00,77.9,65.0,30.09,SE,145,7.0,-999.0,65,-99.99,,,0.00,weatherlink.com 1.10,2013-01-12 17:23:00,
2013-01-12 12:40:00,78.7,65.0,30.08,ESE,107,5.0,-999.0,62,-99.99,,,0.00,weatherlink.com 1.10,2013-01-12 17:40:00,
2013-01-12 12:56:00,79.2,64.0,30.07,SSE,163,1.0,-999.0,60,-99.99,,,0.00,weatherlink.com 1.10,2013-01-12 17:56:00,
2013-01-12 13:12:00,80.3,64.0,30.07,ESE,109,1.0,-999.0,58,-99.99,,,0.00,weatherlink.com 1.10,2013-01-12 18:12:00,
2013-01-12 13:29:00,81.2,64.0,30.06,SE,144,0.0,-999.0,56,-99.99,,,0.00,weatherlink.com 1.10,2013-01-12 18:29:00,
2013-01-12 13:45:00,81.3,64.0,30.06,SSE,149,4.0,-999.0,55,-99.99,,,0.00,weatherlink.com 1.10,2013-01-12 18:45:00,
2013-01-12 14:02:00,79.0,63.0,30.06,ESE,120,0.0,-999.0,59,-99.99,,,0.00,weatherlink.com 1.10,2013-01-12 19:02:00,
2013-01-12 14:18:00,79.0,63.0,30.05,ESE,123,2.0,-999.0,59,-99.99,,,0.00,weatherlink.com 1.10,2013-01-12 19:18:00,
2013-01-12 14:35:00,80.0,63.0,30.05,SE,141,4.0,-999.0,56,-99.99,,,0.00,weatherlink.com 1.10,2013-01-12 19:35:00,
2013-01-12 14:51:00,80.4,63.0,30.05,East,87,2.0,-999.0,56,-99.99,,,0.00,weatherlink.com 1.10,2013-01-12 19:51:00,
2013-01-12 15:07:00,80.0,63.0,30.05,North,360,4.0,-999.0,57,-99.99,,,0.00,weatherlink.com 1.10,2013-01-12 20:07:00,
2013-01-12 15:25:00,80.0,63.0,30.04,ESE,111,5.0,-999.0,56,-99.99,,,0.00,weatherlink.com 1.10,2013-01-12 20:25:00,
2013-01-12 15:41:00,80.9,63.0,30.05,ESE,120,1.0,-999.0,54,-99.99,,,0.00,weatherlink.com 1.10,2013-01-12 20:41:00,
2013-01-12 15:57:00,79.6,62.0,30.05,SSE,147,4.0,-999.0,55,-99.99,,,0.00,weatherlink.com 1.10,2013-01-12 20:57:00,
2013-01-12 16:13:00,79.1,62.0,30.05,SE,136,1.0,-999.0,56,-99.99,,,0.00,weatherlink.com 1.10,2013-01-12 21:13:00,
2013-01-12 16:30:00,79.1,63.0,30.05,ESE,118,2.0,-999.0,58,-99.99,,,0.00,weatherlink.com 1.10,2013-01-12 21:30:00,
2013-01-12 16:46:00,78.7,63.0,30.06,SE,137,1.0,-999.0,58,-99.99,,,0.00,weatherlink.com 1.10,2013-01-12 21:46:00,
2013-01-12 17:03:00,78.1,63.0,30.06,ESE,113,2.0,-999.0,61,-99.99,,,0.00,weatherlink.com 1.10,2013-01-12 22:03:00,
2013-01-12 17:18:00,77.0,64.0,30.07,ESE,120,7.0,-999.0,64,-99.99,,,0.00,weatherlink.com 1.10,2013-01-12 22:18:00,
2013-01-12 17:33:00,76.1,64.0,30.07,ESE,103,4.0,-999.0,67,-99.99,,,0.00,weatherlink.com 1.10,2013-01-12 22:33:00,
2013-01-12 17:48:00,75.5,64.0,30.07,ESE,115,2.0,-999.0,68,-99.99,,,0.00,weatherlink.com 1.10,2013-01-12 22:48:00,
2013-01-12 18:03:00,75.0,63.0,30.07,SE,130,4.0,-999.0,67,-99.99,,,0.00,weatherlink.com 1.10,2013-01-12 23:03:00,
2013-01-12 18:18:00,74.1,64.0,30.07,ESE,111,4.0,-999.0,70,-99.99,,,0.00,weatherlink.com 1.10,2013-01-12 23:18:00,
2013-01-12 18:33:00,73.4,63.0,30.07,ESE,106,4.0,-999.0,71,-99.99,,,0.00,weatherlink.com 1.10,2013-01-12 23:33:00,
2013-01-12 18:48:00,72.8,63.0,30.08,SE,132,5.0,-999.0,72,-99.99,,,0.00,weatherlink.com 1.10,2013-01-12 23:48:00,
2013-01-12 19:03:00,72.2,63.0,30.08,SSE,149,2.0,-999.0,73,-99.99,,,0.00,weatherlink.com 1.10,2013-01-13 00:03:00,
2013-01-12 19:18:00,71.7,63.0,30.08,South,173,4.0,-999.0,74,-99.99,,,0.00,weatherlink.com 1.10,2013-01-13 00:18:00,
2013-01-12 19:33:00,71.4,64.0,30.08,SE,136,5.0,-999.0,76,-99.99,,,0.00,weatherlink.com 1.10,2013-01-13 00:33:00,
2013-01-12 19:48:00,71.0,64.0,30.08,SSE,155,4.0,-999.0,78,-99.99,,,0.00,weatherlink.com 1.10,2013-01-13 00:48:00,
2013-01-12 20:03:00,70.6,64.0,30.08,South,169,7.0,-999.0,80,-99.99,,,0.00,weatherlink.com 1.10,2013-01-13 01:03:00,
2013-01-12 20:18:00,70.2,64.0,30.08,SSE,157,4.0,-999.0,80,-99.99,,,0.00,weatherlink.com 1.10,2013-01-13 01:18:00,
2013-01-12 20:33:00,69.8,64.0,30.08,South,182,6.0,-999.0,81,-99.99,,,0.00,weatherlink.com 1.10,2013-01-13 01:33:00,
2013-01-12 20:48:00,69.5,64.0,30.07,SSE,157,7.0,-999.0,82,-99.99,,,0.00,weatherlink.com 1.10,2013-01-13 01:48:00,
2013-01-12 21:03:00,69.4,64.0,30.07,South,169,6.0,-999.0,82,-99.99,,,0.00,weatherlink.com 1.10,2013-01-13 02:03:00,
2013-01-12 21:18:00,69.1,63.0,30.07,South,180,5.0,-999.0,82,-99.99,,,0.00,weatherlink.com 1.10,2013-01-13 02:18:00,
2013-01-12 21:33:00,68.9,64.0,30.06,South,171,7.0,-999.0,83,-99.99,,,0.00,weatherlink.com 1.10,2013-01-13 02:33:00,
2013-01-12 21:48:00,68.7,64.0,30.06,SSE,147,4.0,-999.0,84,-99.99,,,0.00,weatherlink.com 1.10,2013-01-13 02:48:00,
2013-01-12 22:03:00,68.5,64.0,30.06,South,182,2.0,-999.0,84,-99.99,,,0.00,weatherlink.com 1.10,2013-01-13 03:03:00,
2013-01-12 22:18:00,68.3,64.0,30.06,South,174,4.0,-999.0,86,-99.99,,,0.00,weatherlink.com 1.10,2013-01-13 03:18:00,
2013-01-12 22:33:00,68.3,64.0,30.06,South,171,2.0,-999.0,86,-99.99,,,0.00,weatherlink.com 1.10,2013-01-13 03:33:00,
2013-01-12 22:48:00,68.1,64.0,30.06,SW,223,3.0,-999.0,87,-99.99,,,0.00,weatherlink.com 1.10,2013-01-13 03:48:00,
2013-01-12 23:03:00,68.0,64.0,30.06,SSW,210,1.0,-999.0,88,-99.99,,,0.00,weatherlink.com 1.10,2013-01-13 04:03:00,
2013-01-12 23:18:00,67.8,65.0,30.06,SSW,205,2.0,-999.0,89,-99.99,,,0.00,weatherlink.com 1.10,2013-01-13 04:18:00,
2013-01-12 23:33:00,67.5,65.0,30.06,South,188,2.0,-999.0,90,-99.99,,,0.00,weatherlink.com 1.10,2013-01-13 04:33:00,
2013-01-12 23:48:00,67.3,64.0,30.07,SSW,195,0.0,-999.0,90,-99.99,,,0.00,weatherlink.com 1.10,2013-01-13 04:48:00,